Terminal Aerodrome Forecast
Issued by NWS

Home | Current Version | Previous Version | Text Only | Print | Product List | Glossary On
Versions: 1 2 3 4 5 6 7 8 9 10 11 12 13 14
234
FTUS43 KGRR 281121
TAFLAN
TAF
KLAN 281121Z 2812/2912 06003KT P6SM SCT080 BKN250
     FM281300 07006KT P6SM SCT060 BKN250
     FM281800 07005KT P6SM VCTS BKN040CB
     FM290200 06005KT P6SM OVC060=

USA.gov is the U.S. government's official web portal to all federal, state and local government web resources and services.